createdAt,value
2022-11-23T00:04:18.886Z,101052.53
2022-11-23T00:09:46.886Z,101046.50
2022-11-23T01:02:53.952Z,101081.28
2022-11-23T01:05:41.953Z,101081.38
2022-11-23T01:08:13.807Z,101084.13
2022-11-23T01:10:44.042Z,101090.97
2022-11-23T01:13:15.806Z,101091.41
2022-11-23T01:15:51.990Z,101093.56
2022-11-23T01:18:37.346Z,101089.13
2022-11-23T01:21:18.630Z,101087.53
2022-11-23T01:23:53.403Z,101092.13
2022-11-23T01:26:24.745Z,101093.94
2022-11-23T01:28:56.193Z,101093.16
2022-11-23T01:31:27.343Z,101089.94
2022-11-23T01:34:04.812Z,101107.84
2022-11-23T01:36:36.522Z,101106.94
2022-11-23T01:39:08.035Z,101117.63
2022-11-23T01:41:43.481Z,101124.31
2022-11-23T01:44:32.092Z,101117.97
2022-11-23T01:47:06.549Z,101111.50
2022-11-23T01:49:54.308Z,101113.19
2022-11-23T01:52:27.392Z,101115.94
2022-11-23T01:55:03.894Z,101111.38
2022-11-23T01:57:41.143Z,101118.81
2022-11-23T02:00:12.038Z,101112.53
2022-11-23T02:02:49.509Z,101106.09
2022-11-23T02:05:25.973Z,101107.28
2022-11-23T02:07:57.635Z,101104.16
2022-11-23T02:10:26.460Z,101112.13
2022-11-23T02:12:55.915Z,101117.91
2022-11-23T02:15:24.210Z,101119.41
2022-11-23T02:17:55.317Z,101108.28
2022-11-23T02:20:26.414Z,101105.38
2022-11-23T02:23:33.283Z,101111.91
2022-11-23T02:26:22.516Z,101111.53
2022-11-23T02:29:07.421Z,101111.53
2022-11-23T02:31:43.269Z,101117.97
2022-11-23T02:34:12.115Z,101116.16
2022-11-23T02:36:51.671Z,101120.16
2022-11-23T02:39:47.213Z,101129.94
2022-11-23T02:42:25.825Z,101144.50
2022-11-23T02:45:07.726Z,101145.41
2022-11-23T02:50:38.421Z,101158.69
2022-11-23T02:53:08.390Z,101169.16
2022-11-23T02:55:42.976Z,101178.88
2022-11-23T02:58:13.871Z,101190.75
2022-11-23T03:00:42.969Z,101195.97
2022-11-23T03:03:16.419Z,101203.38
2022-11-23T03:06:03.950Z,101204.97
2022-11-23T03:08:59.553Z,101195.97
2022-11-23T03:11:43.318Z,101198.50
2022-11-23T03:14:19.848Z,101206.72
2022-11-23T03:16:54.148Z,101204.69
2022-11-23T03:19:29.090Z,101200.84
2022-11-23T03:21:59.672Z,101210.56
2022-11-23T03:24:32.515Z,101207.41
2022-11-23T03:27:01.726Z,101217.78
2022-11-23T03:29:34.459Z,101224.25
2022-11-23T03:34:56.918Z,101234.75
2022-11-23T03:37:28.542Z,101236.03
2022-11-23T03:39:59.647Z,101245.63
2022-11-23T03:42:29.991Z,101256.63
2022-11-23T03:45:01.343Z,101251.66
2022-11-23T03:47:32.417Z,101250.91
2022-11-23T04:05:46.406Z,101244.38
2022-11-23T04:08:16.209Z,101249.63
2022-11-23T04:10:46.603Z,101251.56
2022-11-23T04:13:15.498Z,101249.03
2022-11-23T04:15:46.210Z,101248.81
2022-11-23T04:18:16.367Z,101256.22
2022-11-23T04:20:46.992Z,101247.94
2022-11-23T04:23:16.589Z,101254.09
2022-11-23T04:25:47.390Z,101248.25
2022-11-23T04:28:16.221Z,101253.47
2022-11-23T04:30:48.111Z,101252.53
2022-11-23T04:33:27.844Z,101249.28
2022-11-23T04:36:02.058Z,101252.00
2022-11-23T04:38:31.410Z,101261.09
2022-11-23T04:41:00.663Z,101259.00
2022-11-23T04:43:33.873Z,101270.34
2022-11-23T04:46:06.015Z,101252.75
2022-11-23T04:48:37.274Z,101260.50
2022-11-23T04:51:09.053Z,101257.50
2022-11-23T04:53:41.165Z,101261.75
2022-11-23T04:56:10.818Z,101264.31
2022-11-23T04:58:45.051Z,101254.16
2022-11-23T05:01:16.189Z,101265.16
2022-11-23T05:03:57.858Z,101253.09
2022-11-23T05:06:27.455Z,101266.63
2022-11-23T05:09:03.904Z,101267.94
2022-11-23T05:11:35.742Z,101280.41
2022-11-23T05:14:06.340Z,101277.97
2022-11-23T05:16:36.251Z,101275.00
2022-11-23T05:19:05.362Z,101273.09
2022-11-23T05:21:40.668Z,101281.91
2022-11-23T05:24:18.785Z,101296.06
2022-11-23T05:26:56.525Z,101293.97
2022-11-23T05:29:29.383Z,101293.75
2022-11-23T05:32:04.430Z,101304.16
2022-11-23T05:34:35.268Z,101297.25
2022-11-23T05:37:06.110Z,101305.19
2022-11-23T05:39:37.270Z,101293.41
2022-11-23T06:03:17.132Z,101272.28
2022-11-23T06:23:23.502Z,101267.94
2022-11-23T06:31:52.433Z,101293.88
2022-11-23T06:34:34.422Z,101285.63
2022-11-23T06:39:53.631Z,101286.75
2022-11-23T06:42:38.292Z,101288.09
2022-11-23T06:45:09.729Z,101279.53
2022-11-23T06:47:43.286Z,101281.88
2022-11-23T06:50:13.000Z,101290.78
2022-11-23T06:52:47.900Z,101303.50
2022-11-23T06:55:23.043Z,101302.88
2022-11-23T06:57:56.484Z,101304.25
2022-11-23T07:00:34.119Z,101304.56
2022-11-23T07:05:49.044Z,101290.56
2022-11-23T07:11:30.949Z,101291.09
2022-11-23T07:14:03.824Z,101296.91
2022-11-23T07:16:34.647Z,101290.97
2022-11-23T07:19:08.455Z,101290.13
2022-11-23T07:21:47.659Z,101285.78
2022-11-23T07:24:20.421Z,101289.50
2022-11-23T07:44:37.423Z,101265.50
2022-11-23T07:47:30.016Z,101266.38
2022-11-23T07:59:03.505Z,101261.09
2022-11-23T08:01:52.098Z,101254.41
2022-11-23T08:04:27.074Z,101251.69
2022-11-23T08:07:04.515Z,101255.53
2022-11-23T08:09:50.033Z,101257.28
2022-11-23T08:12:34.874Z,101261.69
2022-11-23T08:15:28.525Z,101262.53
2022-11-23T08:18:13.589Z,101257.56
2022-11-23T08:26:50.447Z,101265.09
2022-11-23T08:32:16.285Z,101251.13
2022-11-23T08:52:38.540Z,101272.72
2022-11-23T08:55:11.636Z,101278.16
2022-11-23T09:13:23.764Z,101281.78
2022-11-23T09:33:37.592Z,101259.19
2022-11-23T10:08:04.846Z,101230.22
2022-11-23T10:14:36.348Z,101235.50
2022-11-23T10:36:57.814Z,101213.91
2022-11-23T11:00:48.100Z,101167.72
2022-11-23T11:09:30.291Z,101185.16
2022-11-23T11:15:18.654Z,101186.34
2022-11-23T11:29:54.183Z,101202.88
2022-11-23T11:57:19.549Z,101225.13
2022-11-23T12:03:35.643Z,101216.59
2022-11-23T12:12:37.848Z,101222.25
2022-11-23T12:15:26.608Z,101220.81
2022-11-23T12:29:12.596Z,101226.78
2022-11-23T15:13:52.231Z,101178.03
2022-11-23T15:16:22.539Z,101162.25
2022-11-23T15:18:50.608Z,101178.09
2022-11-23T15:21:27.631Z,101181.72
2022-11-23T15:24:00.889Z,101187.84
2022-11-23T15:29:54.609Z,101175.88
2022-11-23T16:48:57.763Z,101163.91
2022-11-23T16:51:29.254Z,101166.78
2022-11-23T16:54:17.944Z,101163.16
2022-11-23T16:56:53.906Z,101166.53
2022-11-23T16:59:24.714Z,101174.97
2022-11-23T17:02:00.996Z,101170.28
2022-11-23T17:04:35.652Z,101178.69
2022-11-23T17:07:05.817Z,101170.63
2022-11-23T17:09:41.429Z,101172.03
2022-11-23T17:12:19.297Z,101188.13
2022-11-23T17:15:12.704Z,101180.78
2022-11-23T17:17:57.376Z,101186.09
2022-11-23T17:20:26.145Z,101179.16
2022-11-23T17:23:00.312Z,101179.09
2022-11-23T17:25:35.420Z,101187.91
2022-11-23T17:28:06.231Z,101177.34
2022-11-23T17:30:34.744Z,101179.06
2022-11-23T17:33:04.028Z,101180.78
2022-11-23T17:35:36.853Z,101174.13
2022-11-23T17:38:14.433Z,101176.44
2022-11-23T17:40:42.832Z,101178.88
2022-11-23T17:43:14.464Z,101180.81
2022-11-23T17:45:44.319Z,101189.22
2022-11-23T17:48:14.149Z,101179.09
2022-11-23T17:50:43.890Z,101175.47
2022-11-23T17:53:11.597Z,101191.41
2022-11-23T17:55:43.943Z,101186.69
2022-11-23T17:58:13.063Z,101190.41
2022-11-23T18:00:41.654Z,101186.19
2022-11-23T18:03:10.618Z,101192.59
2022-11-23T18:05:40.685Z,101169.03
2022-11-23T18:08:10.878Z,101167.00
2022-11-23T18:10:38.589Z,101162.84
2022-11-23T18:13:07.656Z,101159.72
2022-11-23T18:15:35.661Z,101160.44
2022-11-23T18:18:05.140Z,101165.38
2022-11-23T18:20:33.691Z,101177.75
2022-11-23T18:23:02.722Z,101167.69
2022-11-23T18:25:31.004Z,101167.00
2022-11-23T18:28:00.141Z,101171.72
2022-11-23T18:30:29.360Z,101174.22
2022-11-23T18:32:58.554Z,101174.69
2022-11-23T18:35:26.590Z,101171.81
2022-11-23T18:37:58.506Z,101173.41
2022-11-23T18:40:26.632Z,101177.63
2022-11-23T18:42:55.884Z,101179.56
2022-11-23T18:50:49.175Z,101167.63
2022-11-23T18:53:17.576Z,101155.78
2022-11-23T18:55:45.649Z,101167.25
2022-11-23T18:58:13.709Z,101165.13
2022-11-23T19:00:42.429Z,101169.44
2022-11-23T19:03:11.245Z,101176.69
2022-11-23T19:05:40.445Z,101171.63
2022-11-23T19:08:08.716Z,101175.47
2022-11-23T19:10:39.516Z,101158.81
2022-11-23T19:13:07.672Z,101166.91
2022-11-23T19:15:40.250Z,101157.25
2022-11-23T19:18:09.686Z,101162.28
2022-11-23T19:20:40.330Z,101160.84
2022-11-23T19:23:08.646Z,101156.59
2022-11-23T19:25:41.593Z,101146.38
2022-11-23T19:28:09.543Z,101147.97
2022-11-23T19:30:38.185Z,101152.19
2022-11-23T19:33:06.660Z,101145.66
2022-11-23T19:35:36.016Z,101145.03
2022-11-23T19:38:04.647Z,101150.84
2022-11-23T19:40:34.381Z,101153.50
2022-11-23T19:43:05.918Z,101150.13
2022-11-23T19:45:33.681Z,101143.13
2022-11-23T19:48:03.013Z,101148.81
2022-11-23T19:50:32.004Z,101144.56
2022-11-23T19:53:16.031Z,101160.66
2022-11-23T19:55:44.569Z,101161.97
2022-11-23T19:58:14.775Z,101159.06
2022-11-23T20:01:02.734Z,101162.56
2022-11-23T20:03:35.070Z,101176.44
2022-11-23T20:06:10.369Z,101167.50
2022-11-23T20:08:42.332Z,101159.53
2022-11-23T20:11:13.866Z,101163.03
2022-11-23T20:13:44.297Z,101150.72
2022-11-23T20:16:15.020Z,101145.88
2022-11-23T20:18:45.346Z,101153.38
2022-11-23T20:21:16.095Z,101147.09
2022-11-23T20:23:46.471Z,101150.81
2022-11-23T20:26:21.628Z,101145.72
2022-11-23T20:28:55.660Z,101138.00
2022-11-23T20:31:25.975Z,101143.78
2022-11-23T20:33:56.685Z,101136.19
2022-11-23T20:36:28.517Z,101121.44
2022-11-23T20:38:58.592Z,101114.50
2022-11-23T20:41:32.187Z,101108.53
2022-11-23T20:44:03.816Z,101105.50
2022-11-23T20:47:00.555Z,101095.03
2022-11-23T20:49:25.786Z,101093.59
2022-11-23T20:51:53.646Z,101103.38
2022-11-23T20:54:24.831Z,101102.06
2022-11-23T20:56:53.514Z,101099.50
2022-11-23T20:59:24.085Z,101112.34
2022-11-23T21:01:52.642Z,101109.44
2022-11-23T21:04:21.343Z,101107.44
2022-11-23T21:06:50.697Z,101111.06
2022-11-23T21:09:21.205Z,101117.16
2022-11-23T21:12:09.186Z,101119.53
2022-11-23T21:14:39.455Z,101116.38
2022-11-23T21:17:08.154Z,101115.78
2022-11-23T21:19:39.757Z,101106.25
2022-11-23T21:22:11.188Z,101109.97
2022-11-23T21:24:40.300Z,101120.19
2022-11-23T21:27:12.464Z,101120.00
2022-11-23T21:29:40.983Z,101122.47
2022-11-23T21:32:10.991Z,101120.72
2022-11-23T21:43:55.125Z,101115.75
2022-11-23T22:15:57.035Z,101071.81
2022-11-23T22:29:56.265Z,101073.66
2022-11-23T22:32:24.013Z,101079.41
2022-11-23T22:39:07.617Z,101079.81
2022-11-23T22:41:39.529Z,101073.38
2022-11-23T22:44:09.544Z,101062.81
2022-11-23T22:46:39.541Z,101053.59
2022-11-23T22:49:10.514Z,101050.47
2022-11-23T22:51:39.679Z,101052.13
2022-11-23T22:54:12.184Z,101058.16
2022-11-23T22:56:40.664Z,101054.59
2022-11-23T22:59:09.873Z,101058.50
2022-11-23T23:01:38.609Z,101062.84
2022-11-23T23:04:08.294Z,101053.28
2022-11-23T23:06:36.733Z,101052.84
2022-11-23T23:09:09.542Z,101038.41
2022-11-23T23:11:37.774Z,101041.84
2022-11-23T23:14:07.812Z,101041.53
2022-11-23T23:16:37.054Z,101039.59
2022-11-23T23:19:06.656Z,101037.66
2022-11-23T23:21:35.643Z,101044.41
2022-11-23T23:24:06.134Z,101030.13
2022-11-23T23:26:35.812Z,101025.19
2022-11-23T23:29:04.832Z,101023.81
2022-11-23T23:31:39.659Z,101021.72
2022-11-23T23:34:09.065Z,101028.47
2022-11-23T23:36:37.227Z,101027.66
2022-11-23T23:39:06.420Z,101031.53
2022-11-23T23:41:37.630Z,101029.88
2022-11-23T23:44:06.988Z,101041.94
2022-11-23T23:46:35.659Z,101046.69
2022-11-23T23:49:05.058Z,101034.66
2022-11-23T23:51:35.115Z,101037.91
2022-11-23T23:54:04.106Z,101039.19
2022-11-23T23:56:33.368Z,101039.28
2022-11-23T23:59:02.794Z,101047.19
